Time;durP1;ratioP1;P1;durP2;ratioP2;P2;SDS_P1;SDS_P2;PMS_P1;PMS_P2;Temp;Humidity;BMP_temperature;BMP_pressure;BME280_temperature;BME280_humidity;BME280_pressure;Samples;Min_cycle;Max_cycle;Signal;HPM_P1;HPM_P2
2021/12/29 00:00:02;;;;;;;;;;;;;;;;;;;;;
2021/12/29 00:03:07;;;;;;;;;;;;;;;;;;;;;
2021/12/29 00:06:29;;;;;;;5.07;3.08;;;9.70;99.90;;;;;;6157499;23;20021;-90
2021/12/29 00:08:49;;;;;;;4.85;2.95;;;9.70;99.90;;;;;;6177799;23;20011;-89
2021/12/29 00:11:41;;;;;;;6.25;3.00;;;9.70;99.90;;;;;;6162509;23;20403;-90
2021/12/29 00:14:18;;;;;;;7.43;3.83;;;9.70;99.90;;;;;;6184779;23;20052;-89
2021/12/29 00:17:02;;;;;;;;;;;;;;;;;;;;;
2021/12/29 00:20:02;;;;;;;5.82;3.60;;;9.70;99.90;;;;;;6186204;23;20076;-90
2021/12/29 00:25:25;;;;;;;4.70;2.97;;;9.70;99.90;;;;;;6170415;23;20010;-90
2021/12/29 00:28:04;;;;;;;;;;;;;;;;;;;;;
2021/12/29 00:30:42;;;;;;;4.00;3.10;;;9.80;99.90;;;;;;6187054;23;20076;-91
2021/12/29 00:33:31;;;;;;;6.00;3.10;;;9.70;99.90;;;;;;6161911;23;20097;-90
2021/12/29 00:36:17;;;;;;;5.68;3.60;;;9.80;99.90;;;;;;6163233;23;20040;-89
2021/12/29 00:39:25;;;;;;;4.80;3.40;;;9.80;99.90;;;;;;6161554;23;20012;-90
2021/12/29 00:45:26;;;;;;;6.20;3.90;;;9.80;99.90;;;;;;6165185;23;20009;-90
2021/12/29 00:48:09;;;;;;;8.18;3.85;;;9.70;99.90;;;;;;6186501;23;20001;-90
2021/12/29 00:51:16;;;;;;;5.10;4.05;;;9.70;99.90;;;;;;6185303;23;20488;-89
2021/12/29 00:54:04;;;;;;;6.32;4.18;;;9.70;99.90;;;;;;6185710;23;20005;-89
2021/12/29 00:56:43;;;;;;;7.63;4.63;;;9.70;99.90;;;;;;6184786;23;20009;-89
2021/12/29 00:59:35;;;;;;;;;;;;;;;;;;;;;
2021/12/29 01:02:24;;;;;;;8.35;5.10;;;9.70;99.90;;;;;;6211899;23;20021;-90
2021/12/29 01:04:53;;;;;;;10.65;5.10;;;9.70;99.90;;;;;;6201664;23;20004;-90
2021/12/29 01:07:31;;;;;;;;;;;;;;;;;;;;;
2021/12/29 01:10:38;;;;;;;;;;;;;;;;;;;;;
2021/12/29 01:13:44;;;;;;;;;;;;;;;;;;;;;
2021/12/29 01:19:36;;;;;;;10.00;4.50;;;9.70;99.90;;;;;;6198364;23;20001;-89
2021/12/29 01:25:25;;;;;;;;;;;;;;;;;;;;;
2021/12/29 01:28:48;;;;;;;;;;;;;;;;;;;;;
2021/12/29 01:31:24;;;;;;;9.48;4.22;;;9.70;99.90;;;;;;6089648;23;20449;-90
2021/12/29 01:34:13;;;;;;;8.18;3.60;;;9.70;99.90;;;;;;6185969;23;20017;-90
2021/12/29 01:37:02;;;;;;;11.07;4.10;;;9.70;99.90;;;;;;6186904;23;20017;-90
2021/12/29 01:39:43;;;;;;;7.88;4.28;;;9.70;99.90;;;;;;6114676;23;20001;-90
2021/12/29 01:42:43;;;;;;;11.15;4.53;;;9.80;99.90;;;;;;6186551;23;20431;-90
2021/12/29 01:48:51;;;;;;;11.75;5.10;;;9.70;99.90;;;;;;6187678;23;20005;-90
2021/12/29 01:51:42;;;;;;;10.52;4.28;;;9.70;99.90;;;;;;6163784;23;20005;-89
2021/12/29 01:54:24;;;;;;;9.07;4.05;;;9.70;99.90;;;;;;6186536;23;20001;-89
2021/12/29 01:57:12;;;;;;;;;;;;;;;;;;;;;
2021/12/29 02:00:02;;;;;;;;;;;;;;;;;;;;;
2021/12/29 02:02:43;;;;;;;7.95;4.28;;;9.70;99.90;;;;;;6186527;23;20105;-89
2021/12/29 02:05:52;;;;;;;;;;;;;;;;;;;;;
2021/12/29 02:08:58;;;;;;;8.95;4.78;;;9.70;99.90;;;;;;6186864;23;20080;-90
2021/12/29 02:14:49;;;;;;;10.18;4.65;;;9.80;99.90;;;;;;6169915;23;20339;-89
2021/12/29 02:20:26;;;;;;;12.40;3.88;;;9.70;99.90;;;;;;6170152;23;20005;-90
2021/12/29 02:26:14;;;;;;;;;;;;;;;;;;;;;
2021/12/29 02:28:51;;;;;;;11.73;4.32;;;9.80;99.90;;;;;;6185745;23;20085;-89
2021/12/29 02:31:42;;;;;;;7.75;3.97;;;9.80;99.90;;;;;;6162588;23;20400;-90
2021/12/29 02:37:30;;;;;;;;;;;;;;;;;;;;;
2021/12/29 02:40:32;;;;;;;9.90;4.53;;;9.80;99.90;;;;;;6213243;23;19985;-89
2021/12/29 02:43:12;;;;;;;8.20;4.05;;;9.80;99.90;;;;;;6212761;23;20065;-89
2021/12/29 02:46:15;;;;;;;;;;;;;;;;;;;;;
2021/12/29 02:49:10;;;;;;;9.90;4.80;;;9.80;99.90;;;;;;6202220;23;20013;-90
2021/12/29 02:51:47;;;;;;;8.80;3.85;;;9.80;99.90;;;;;;6185808;23;20009;-90
2021/12/29 02:54:26;;;;;;;8.88;4.18;;;9.80;99.90;;;;;;6185615;23;20005;-90
2021/12/29 03:00:34;;;;;;;;;;;;;;;;;;;;;
2021/12/29 03:03:03;;;;;;;8.60;3.22;;;9.80;99.90;;;;;;6186764;23;20076;-90
2021/12/29 03:06:11;;;;;;;10.07;4.45;;;9.80;99.90;;;;;;6185465;23;20124;-89
2021/12/29 03:09:05;;;;;;;7.60;3.78;;;9.70;99.90;;;;;;6184967;23;20088;-89
2021/12/29 03:12:01;;;;;;;8.00;4.03;;;9.80;99.90;;;;;;6185268;23;20005;-90
2021/12/29 03:15:00;;;;;;;;;;;;;;;;;;;;;
2021/12/29 03:17:38;;;;;;;8.65;4.40;;;9.80;99.90;;;;;;6186882;23;20084;-89
2021/12/29 03:20:23;;;;;;;;;;;;;;;;;;;;;
2021/12/29 03:23:06;;;;;;;;;;;;;;;;;;;;;
2021/12/29 03:26:18;;;;;;;11.40;5.45;;;9.80;99.90;;;;;;6185392;23;20097;-89
2021/12/29 03:29:26;;;;;;;;;;;;;;;;;;;;;
2021/12/29 03:32:07;;;;;;;15.50;5.10;;;9.70;99.90;;;;;;6185823;23;20104;-89
2021/12/29 03:34:43;;;;;;;11.77;4.65;;;9.70;99.90;;;;;;6185205;23;20016;-90
2021/12/29 03:40:55;;;;;;;;;;;;;;;;;;;;;
2021/12/29 03:43:56;;;;;;;13.90;5.70;;;9.70;99.90;;;;;;6186665;23;20076;-90
2021/12/29 03:47:14;;;;;;;;;;;;;;;;;;;;;
2021/12/29 03:49:58;;;;;;;;;;;;;;;;;;;;;
2021/12/29 03:52:42;;;;;;;13.80;5.15;;;9.70;99.90;;;;;;6185611;23;20395;-90
2021/12/29 03:55:39;;;;;;;9.95;4.40;;;9.80;99.90;;;;;;6185344;23;20025;-89
2021/12/29 03:58:30;;;;;;;9.68;4.43;;;9.70;99.90;;;;;;6185845;23;20431;-89
2021/12/29 04:01:52;;;;;;;9.25;4.55;;;9.70;99.90;;;;;;6162738;23;20083;-90
2021/12/29 04:04:36;;;;;;;;;;;9.70;99.90;;;;;;6186252;23;20001;-90
2021/12/29 04:07:38;;;;;;;11.32;5.03;;;9.70;99.90;;;;;;6185432;23;19919;-91
2021/12/29 04:10:45;;;;;;;;;;;;;;;;;;;;;
2021/12/29 04:13:47;;;;;;;;;;;;;;;;;;;;;
2021/12/29 04:16:39;;;;;;;;;;;;;;;;;;;;;
2021/12/29 04:19:29;;;;;;;9.55;4.15;;;9.70;99.90;;;;;;6212301;23;19997;-89
2021/12/29 04:22:10;;;;;;;;;;;;;;;;;;;;;
2021/12/29 04:25:48;;;;;;;10.13;4.18;;;9.70;99.90;;;;;;6212575;23;20005;-91
2021/12/29 04:28:15;;;;;;;10.45;4.28;;;9.70;99.90;;;;;;6187210;23;20013;-90
2021/12/29 04:31:43;;;;;;;10.80;4.28;;;9.70;99.90;;;;;;6186257;23;20001;-90
2021/12/29 04:34:35;;;;;;;10.93;4.55;;;9.70;99.90;;;;;;6147079;23;20017;-89
2021/12/29 04:37:22;;;;;;;9.02;3.97;;;9.70;99.90;;;;;;6185365;23;20427;-91
2021/12/29 04:40:23;;;;;;;;;;;;;;;;;;;;;
2021/12/29 04:46:13;;;;;;;;;;;;;;;;;;;;;
2021/12/29 04:52:16;;;;;;;;;;;;;;;;;;;;;
2021/12/29 04:58:10;;;;;;;8.32;4.32;;;9.70;99.90;;;;;;6141600;23;20016;-90
2021/12/29 05:01:20;;;;;;;8.00;4.07;;;9.70;99.90;;;;;;6187678;23;20064;-89
2021/12/29 05:03:43;;;;;;;;;;;;;;;;;;;;;
2021/12/29 05:09:29;;;;;;;;;;;;;;;;;;;;;
2021/12/29 05:12:40;;;;;;;7.07;4.05;;;9.60;99.90;;;;;;6187553;23;20450;-90
2021/12/29 05:15:40;;;;;;;7.63;4.07;;;9.70;99.90;;;;;;6155504;23;20001;-90
2021/12/29 05:18:46;;;;;;;;;;;;;;;;;;;;;
2021/12/29 05:21:33;;;;;;;4.65;3.92;;;9.70;99.90;;;;;;6187457;23;20502;-89
2021/12/29 05:27:24;;;;;;;6.88;4.30;;;9.70;99.90;;;;;;6174370;23;20045;-89
2021/12/29 05:30:04;;;;;;;8.55;5.18;;;9.70;99.90;;;;;;6141058;23;20024;-89
2021/12/29 05:33:01;;;;;;;;;;;;;;;;;;;;;
2021/12/29 05:35:34;;;;;;;7.50;4.70;;;9.70;99.90;;;;;;6135233;23;20080;-89
2021/12/29 05:38:29;;;;;;;9.20;5.68;;;9.70;99.90;;;;;;6163181;23;20013;-89
2021/12/29 05:41:00;;;;;;;7.63;6.03;;;9.70;99.90;;;;;;6166058;23;20092;-89
2021/12/29 05:43:51;;;;;;;6.88;6.03;;;9.70;99.90;;;;;;6186415;23;20001;-89
2021/12/29 05:46:33;;;;;;;7.82;5.93;;;9.60;99.90;;;;;;6186534;23;20024;-89
2021/12/29 05:52:32;;;;;;;;;;;;;;;;;;;;;
2021/12/29 05:55:21;;;;;;;8.90;6.20;;;9.70;99.90;;;;;;6207488;23;19986;-90
2021/12/29 05:58:14;;;;;;;;;;;;;;;;;;;;;
2021/12/29 06:01:12;;;;;;;7.80;6.00;;;9.70;99.90;;;;;;6207305;23;20005;-91
2021/12/29 06:07:11;;;;;;;6.63;5.95;;;9.60;99.90;;;;;;6179917;23;20344;-92
2021/12/29 06:09:49;;;;;;;7.55;5.55;;;9.60;99.90;;;;;;6163289;23;20005;-91
2021/12/29 06:12:20;;;;;;;7.65;5.25;;;9.70;99.90;;;;;;6185996;23;20002;-92
2021/12/29 06:14:49;;;;;;;8.85;5.55;;;9.60;99.90;;;;;;6186981;23;20032;-90
2021/12/29 06:17:17;;;;;;;5.47;4.93;;;9.70;99.90;;;;;;6186343;23;20011;-92
2021/12/29 06:19:57;;;;;;;9.07;5.75;;;9.70;99.90;;;;;;6161713;23;20055;-92
2021/12/29 06:22:52;;;;;;;6.32;5.18;;;9.70;99.90;;;;;;6185904;23;20040;-93
2021/12/29 06:25:22;;;;;;;6.20;5.53;;;9.70;99.90;;;;;;6186545;23;20036;-94
2021/12/29 06:27:59;;;;;;;8.52;5.30;;;9.70;99.90;;;;;;6186630;23;19997;-93
2021/12/29 06:30:36;;;;;;;7.85;5.47;;;9.70;99.90;;;;;;6187040;23;19997;-92
2021/12/29 06:33:09;;;;;;;6.30;5.25;;;9.70;99.90;;;;;;6163277;23;20167;-93
2021/12/29 06:35:46;;;;;;;7.43;4.88;;;9.70;99.90;;;;;;6185036;23;20005;-94
2021/12/29 06:38:15;;;;;;;7.68;5.38;;;9.70;99.90;;;;;;6163613;23;20092;-88
2021/12/29 06:40:45;;;;;;;9.40;5.53;;;9.70;99.90;;;;;;6185595;23;20029;-88
2021/12/29 06:43:14;;;;;;;7.38;5.80;;;9.70;99.90;;;;;;6185496;23;20005;-89
2021/12/29 06:45:45;;;;;;;6.25;5.15;;;9.70;99.90;;;;;;6185818;23;20016;-90
2021/12/29 06:48:22;;;;;;;8.30;5.50;;;9.70;99.90;;;;;;6185503;23;20035;-91
2021/12/29 06:50:58;;;;;;;8.88;5.38;;;9.70;99.90;;;;;;6162605;23;20001;-88
2021/12/29 06:53:31;;;;;;;7.82;5.72;;;9.70;99.90;;;;;;6185310;23;20005;-89
2021/12/29 06:55:58;;;;;;;11.27;5.90;;;9.70;99.90;;;;;;6161446;23;20502;-89
2021/12/29 06:58:26;;;;;;;9.23;5.85;;;9.70;99.90;;;;;;6185899;23;20068;-90
2021/12/29 07:01:05;;;;;;;9.85;6.05;;;9.70;99.90;;;;;;6185003;23;20001;-90
2021/12/29 07:03:44;;;;;;;10.23;6.35;;;9.70;99.90;;;;;;6186071;23;19997;-91
2021/12/29 07:06:10;;;;;;;11.23;7.35;;;9.70;99.90;;;;;;6162106;23;20028;-89
2021/12/29 07:08:44;;;;;;;15.82;7.28;;;9.70;99.90;;;;;;6185238;23;20008;-90
2021/12/29 07:11:15;;;;;;;10.95;7.43;;;9.70;99.90;;;;;;6185180;23;20005;-89
2021/12/29 07:13:49;;;;;;;11.82;6.80;;;9.70;99.90;;;;;;6160866;23;20009;-89
2021/12/29 07:16:25;;;;;;;9.15;6.13;;;9.70;99.90;;;;;;6186061;23;20000;-90
2021/12/29 07:19:04;;;;;;;9.82;6.60;;;9.70;99.90;;;;;;6185422;23;20036;-89
2021/12/29 07:21:59;;;;;;;12.05;6.65;;;9.70;99.90;;;;;;6185084;23;20060;-90
2021/12/29 07:25:24;;;;;;;;;;;;;;;;;;;;;
2021/12/29 07:28:15;;;;;;;8.18;5.90;;;9.60;99.90;;;;;;6187632;23;20394;-91
2021/12/29 07:30:49;;;;;;;9.05;6.40;;;9.70;99.90;;;;;;6174404;23;20005;-92
2021/12/29 07:33:35;;;;;;;9.15;6.13;;;9.70;99.90;;;;;;6211974;23;20060;-93
2021/12/29 07:36:31;;;;;;;12.23;6.35;;;9.70;99.90;;;;;;6212483;23;20009;-94
2021/12/29 07:39:30;;;;;;;9.70;5.93;;;9.70;99.90;;;;;;6173692;23;19989;-89
2021/12/29 07:45:30;;;;;;;;;;;;;;;;;;;;;
2021/12/29 07:48:00;;;;;;;10.23;6.05;;;9.70;99.90;;;;;;6186195;23;20523;-89
2021/12/29 07:50:39;;;;;;;10.00;5.97;;;9.60;99.90;;;;;;6186518;23;20001;-90
2021/12/29 07:53:05;;;;;;;10.00;5.93;;;9.60;99.90;;;;;;6184920;23;20011;-86
2021/12/29 07:55:34;;;;;;;8.00;6.07;;;9.60;99.90;;;;;;6184792;23;20092;-88
2021/12/29 07:58:15;;;;;;;8.63;5.90;;;9.60;99.90;;;;;;6184182;23;20001;-90
2021/12/29 08:00:53;;;;;;;13.52;6.70;;;9.60;99.90;;;;;;6185741;23;20008;-88
2021/12/29 08:03:37;;;;;;;9.95;6.05;;;9.60;99.90;;;;;;6184787;23;20009;-89
2021/12/29 08:06:25;;;;;;;12.45;6.43;;;9.60;99.90;;;;;;6184504;23;20055;-89
2021/12/29 08:09:12;;;;;;;12.57;6.82;;;9.60;99.90;;;;;;6163347;23;20005;-89
2021/12/29 08:11:46;;;;;;;10.15;6.68;;;9.60;99.90;;;;;;6184891;23;20060;-88
2021/12/29 08:14:48;;;;;;;10.25;6.75;;;9.60;99.90;;;;;;6163061;23;20049;-90
2021/12/29 08:17:44;;;;;;;;;;;;;;;;;;;;;
2021/12/29 08:20:43;;;;;;;12.02;7.72;;;9.50;99.90;;;;;;6147387;23;20080;-90
2021/12/29 08:23:25;;;;;;;;;;;;;;;;;;;;;
2021/12/29 08:25:54;;;;;;;11.43;7.95;;;9.60;99.90;;;;;;6187603;23;20083;-89
2021/12/29 08:28:30;;;;;;;13.13;7.85;;;9.50;99.90;;;;;;6186498;23;20006;-88
2021/12/29 08:30:56;;;;;;;11.80;8.15;;;9.50;99.90;;;;;;6186925;23;19997;-88
2021/12/29 08:33:33;;;;;;;15.85;8.23;;;9.60;99.90;;;;;;6161390;23;20052;-89
2021/12/29 08:35:59;;;;;;;15.07;8.68;;;9.60;99.90;;;;;;6187200;23;20088;-88
2021/12/29 08:38:24;;;;;;;12.40;8.70;;;9.60;99.90;;;;;;6186421;23;20083;-88
2021/12/29 08:40:55;;;;;;;14.85;8.15;;;9.60;99.90;;;;;;6186479;23;20427;-88
2021/12/29 08:43:24;;;;;;;13.05;8.90;;;9.60;99.90;;;;;;6186833;23;20033;-89
2021/12/29 08:45:54;;;;;;;11.10;8.65;;;9.60;99.90;;;;;;6186654;23;20020;-89
2021/12/29 08:48:23;;;;;;;12.73;8.70;;;9.60;99.90;;;;;;6186415;23;20031;-89
2021/12/29 08:50:51;;;;;;;14.63;10.10;;;9.60;99.90;;;;;;6186327;23;20009;-88
2021/12/29 08:53:32;;;;;;;13.55;9.50;;;9.60;99.90;;;;;;6186804;23;20001;-89
2021/12/29 08:56:12;;;;;;;14.32;9.88;;;9.60;99.90;;;;;;6187388;23;20006;-91
2021/12/29 08:58:40;;;;;;;16.40;10.07;;;9.60;99.90;;;;;;6189279;23;20004;-92
2021/12/29 09:01:06;;;;;;;18.20;9.75;;;9.60;99.90;;;;;;6187053;23;19997;-90
2021/12/29 09:03:37;;;;;;;15.38;10.30;;;9.60;99.90;;;;;;6187810;23;20036;-90
2021/12/29 09:06:23;;;;;;;16.48;10.43;;;9.60;99.90;;;;;;6188030;23;20013;-90
2021/12/29 09:08:52;;;;;;;11.98;9.85;;;9.60;99.90;;;;;;6201584;23;19993;-90
2021/12/29 09:11:18;;;;;;;15.88;10.35;;;9.60;99.90;;;;;;6188935;23;20037;-90
2021/12/29 09:13:59;;;;;;;20.40;10.40;;;9.60;99.90;;;;;;6206353;23;20009;-88
2021/12/29 09:16:30;;;;;;;13.43;9.82;;;9.60;99.90;;;;;;6166111;23;20012;-90
2021/12/29 09:18:58;;;;;;;14.40;10.55;;;9.60;99.90;;;;;;6181922;23;20001;-90
2021/12/29 09:21:26;;;;;;;15.43;10.40;;;9.60;99.90;;;;;;6186946;23;20000;-90
2021/12/29 09:24:16;;;;;;;15.75;10.77;;;9.60;99.90;;;;;;6186562;23;20083;-91
2021/12/29 09:26:54;;;;;;;14.27;10.18;;;9.60;99.90;;;;;;6187090;23;20360;-92
2021/12/29 09:29:48;;;;;;;15.10;10.10;;;9.60;99.90;;;;;;6162619;23;20012;-90
2021/12/29 09:32:22;;;;;;;13.52;10.30;;;9.60;99.90;;;;;;6160407;23;20017;-89
2021/12/29 09:35:01;;;;;;;;;;;;;;;;;;;;;
2021/12/29 09:37:47;;;;;;;15.20;10.65;;;9.60;99.90;;;;;;6187611;23;20081;-90
2021/12/29 09:40:17;;;;;;;13.07;9.98;;;9.60;99.90;;;;;;6165719;23;20005;-89
2021/12/29 09:42:49;;;;;;;17.77;12.20;;;9.60;99.90;;;;;;6186685;23;20004;-93
2021/12/29 09:45:22;;;;;;;15.23;10.52;;;9.60;99.90;;;;;;6187556;23;20379;-89
2021/12/29 09:47:50;;;;;;;15.38;10.43;;;9.60;99.90;;;;;;6186708;23;19997;-88
2021/12/29 09:50:31;;;;;;;16.65;10.07;;;9.60;99.90;;;;;;6186764;23;20024;-89
2021/12/29 09:53:03;;;;;;;16.00;10.73;;;9.70;99.90;;;;;;6164230;23;20391;-88
2021/12/29 09:55:44;;;;;;;16.60;10.68;;;9.70;99.90;;;;;;6186019;23;20009;-88
2021/12/29 09:58:21;;;;;;;14.52;10.05;;;9.70;99.90;;;;;;6185418;23;20083;-88
2021/12/29 10:00:54;;;;;;;12.43;9.45;;;9.70;99.90;;;;;;6185735;23;20001;-88
2021/12/29 10:03:27;;;;;;;14.98;10.10;;;9.70;99.90;;;;;;6185266;23;20085;-87
2021/12/29 10:06:01;;;;;;;14.52;9.85;;;9.70;99.90;;;;;;6185580;23;20005;-88
2021/12/29 10:08:44;;;;;;;11.50;9.52;;;9.70;99.90;;;;;;6185354;23;20001;-88
2021/12/29 10:11:19;;;;;;;12.98;9.63;;;9.70;99.90;;;;;;6185777;23;20028;-88
2021/12/29 10:13:50;;;;;;;12.95;9.05;;;9.70;99.90;;;;;;6185648;23;20327;-88
2021/12/29 10:16:27;;;;;;;15.23;9.32;;;9.70;99.90;;;;;;6185278;23;20036;-87
2021/12/29 10:19:17;;;;;;;12.65;9.63;;;9.80;99.90;;;;;;6185515;23;19997;-89
2021/12/29 10:21:47;;;;;;;15.18;9.77;;;9.80;99.90;;;;;;6186160;23;20088;-88
2021/12/29 10:24:22;;;;;;;12.57;9.95;;;9.80;99.90;;;;;;6185396;23;20084;-88
2021/12/29 10:26:52;;;;;;;13.85;9.73;;;9.80;99.90;;;;;;6185859;23;20009;-88
2021/12/29 10:29:22;;;;;;;13.63;9.63;;;9.80;99.90;;;;;;6185322;23;20001;-88
2021/12/29 10:32:04;;;;;;;13.73;9.93;;;9.80;99.90;;;;;;6185685;23;20136;-88
2021/12/29 10:34:33;;;;;;;13.15;9.30;;;9.80;99.90;;;;;;6185781;23;20023;-87
2021/12/29 10:37:07;;;;;;;16.02;10.07;;;9.80;99.90;;;;;;6186757;23;20072;-89
2021/12/29 10:39:55;;;;;;;15.70;10.98;;;9.80;99.90;;;;;;6185890;23;20001;-88
2021/12/29 10:42:25;;;;;;;29.80;19.70;;;9.80;99.90;;;;;;6189834;23;19997;-88
2021/12/29 10:45:29;;;;;;;23.40;16.27;;;9.80;99.90;;;;;;6205779;23;20001;-92
2021/12/29 10:48:01;;;;;;;15.52;11.93;;;9.80;99.90;;;;;;6212396;23;20028;-88
2021/12/29 10:50:31;;;;;;;18.15;11.07;;;9.90;99.90;;;;;;6189142;23;19996;-88
2021/12/29 10:52:59;;;;;;;15.90;10.65;;;9.90;99.90;;;;;;6213186;23;19999;-88
2021/12/29 10:55:34;;;;;;;11.00;8.82;;;9.90;99.90;;;;;;6210303;23;20015;-87
2021/12/29 10:58:22;;;;;;;13.20;8.77;;;9.90;99.90;;;;;;6195253;23;19997;-89
2021/12/29 11:04:14;;;;;;;12.48;8.10;;;9.90;99.90;;;;;;6179467;23;20005;-90
2021/12/29 11:06:44;;;;;;;11.85;8.63;;;10.00;99.90;;;;;;6170712;23;20097;-88
2021/12/29 11:09:13;;;;;;;10.20;8.13;;;9.90;99.90;;;;;;6186126;23;20387;-89
2021/12/29 11:11:47;;;;;;;10.77;7.80;;;10.00;99.90;;;;;;6185935;23;20001;-89
2021/12/29 11:14:53;;;;;;;10.52;8.50;;;10.00;99.90;;;;;;6186514;23;20431;-89
2021/12/29 11:20:26;;;;;;;10.75;8.35;;;10.00;99.90;;;;;;6176327;23;20383;-89
2021/12/29 11:23:13;;;;;;;11.70;8.73;;;10.00;99.90;;;;;;6186086;23;20091;-89
2021/12/29 11:28:50;;;;;;;11.45;9.82;;;10.00;99.90;;;;;;6186694;23;20001;-89
2021/12/29 11:31:19;;;;;;;12.15;9.65;;;10.10;99.90;;;;;;6161105;23;20001;-89
2021/12/29 11:33:47;;;;;;;13.55;10.15;;;10.10;99.90;;;;;;6184478;23;20021;-89
2021/12/29 11:36:31;;;;;;;;;;;;;;;;;;;;;
2021/12/29 11:38:59;;;;;;;13.65;10.65;;;10.10;99.90;;;;;;6187450;23;20072;-89
2021/12/29 11:41:27;;;;;;;15.63;12.15;;;10.00;99.90;;;;;;6185388;23;20088;-89
2021/12/29 11:44:04;;;;;;;14.88;11.00;;;10.10;99.90;;;;;;6160741;23;20009;-89
2021/12/29 11:46:35;;;;;;;13.77;11.13;;;10.10;99.90;;;;;;6160299;23;20048;-88
2021/12/29 11:49:06;;;;;;;13.48;10.60;;;10.10;99.90;;;;;;6185518;23;20008;-89
2021/12/29 11:51:54;;;;;;;;;;;10.10;99.90;;;;;;6185692;23;20049;-89
2021/12/29 11:54:33;;;;;;;11.30;10.10;;;10.10;99.90;;;;;;6187179;23;19901;-89
2021/12/29 11:57:23;;;;;;;11.88;9.43;;;10.10;99.90;;;;;;6185463;23;20012;-89
2021/12/29 12:00:05;;;;;;;12.27;10.00;;;10.00;99.90;;;;;;6115779;23;20001;-89
2021/12/29 12:02:37;;;;;;;;;;;10.00;99.90;;;;;;6164754;23;20005;-92
2021/12/29 12:05:21;;;;;;;;;;;;;;;;;;;;;
2021/12/29 12:08:36;;;;;;;12.73;9.60;;;10.00;99.90;;;;;;6186816;23;20104;-93
2021/12/29 12:11:41;;;;;;;;;;;;;;;;;;;;;
2021/12/29 12:14:58;;;;;;;;;;;;;;;;;;;;;
2021/12/29 12:21:23;;;;;;;;;;;;;;;;;;;;;
2021/12/29 12:24:19;;;;;;;;;;;;;;;;;;;;;
2021/12/29 12:27:50;;;;;;;;;;;;;;;;;;;;;
2021/12/29 12:33:57;;;;;;;13.20;8.60;;;10.00;99.90;;;;;;6164183;23;20038;-89
2021/12/29 12:36:34;;;;;;;11.40;8.50;;;10.00;99.90;;;;;;6135492;23;20006;-93
2021/12/29 12:39:21;;;;;;;12.85;8.57;;;10.00;99.90;;;;;;6164681;23;20008;-89
2021/12/29 12:42:15;;;;;;;12.50;9.18;;;10.00;99.90;;;;;;6185113;23;20049;-88
2021/12/29 12:44:44;;;;;;;11.13;8.20;;;10.00;99.90;;;;;;6185042;23;20001;-88
2021/12/29 12:47:34;;;;;;;12.85;8.13;;;10.00;99.90;;;;;;6185148;23;20475;-90
2021/12/29 12:50:08;;;;;;;12.48;8.57;;;10.00;99.90;;;;;;6184834;23;20424;-89
2021/12/29 12:52:55;;;;;;;12.13;8.35;;;10.00;99.90;;;;;;6160083;23;20013;-88
2021/12/29 12:55:32;;;;;;;12.77;8.88;;;10.10;99.90;;;;;;6162368;23;20044;-90
2021/12/29 12:58:39;;;;;;;11.38;8.48;;;10.00;99.90;;;;;;6160640;23;20017;-89
2021/12/29 13:01:14;;;;;;;11.77;7.70;;;10.00;99.90;;;;;;6050156;23;20063;-89
2021/12/29 13:03:49;;;;;;;10.90;7.38;;;10.00;99.90;;;;;;6186442;23;19997;-90
2021/12/29 13:06:28;;;;;;;9.20;7.38;;;10.00;99.90;;;;;;6162826;23;20017;-88
2021/12/29 13:09:01;;;;;;;9.05;7.68;;;10.00;99.90;;;;;;6185927;23;20075;-90
2021/12/29 13:11:31;;;;;;;9.68;7.72;;;10.00;99.90;;;;;;6186859;23;20408;-89
2021/12/29 13:14:02;;;;;;;8.85;6.97;;;10.00;99.90;;;;;;6162057;23;20012;-88
2021/12/29 13:16:37;;;;;;;10.85;7.88;;;10.00;99.90;;;;;;6186294;23;20064;-89
2021/12/29 13:19:11;;;;;;;9.68;7.60;;;10.00;99.90;;;;;;6186914;23;20005;-89
2021/12/29 13:21:59;;;;;;;11.90;7.28;;;10.00;99.90;;;;;;6186083;23;20411;-89
2021/12/29 13:24:32;;;;;;;11.25;7.15;;;10.00;99.90;;;;;;6186260;23;20063;-88
2021/12/29 13:26:58;;;;;;;10.32;7.13;;;10.10;99.90;;;;;;6161549;23;20052;-88
2021/12/29 13:29:26;;;;;;;8.07;6.47;;;10.00;99.90;;;;;;6185665;23;20005;-88
2021/12/29 13:31:56;;;;;;;9.18;6.35;;;10.00;99.90;;;;;;6185342;23;20199;-88
2021/12/29 13:35:08;;;;;;;9.52;6.93;;;10.00;99.90;;;;;;6186955;23;20001;-89
2021/12/29 13:37:37;;;;;;;7.78;5.45;;;10.00;99.90;;;;;;6180705;23;20018;-88
2021/12/29 13:40:19;;;;;;;;;;;;;;;;;;;;;
2021/12/29 13:42:52;;;;;;;7.43;5.20;;;10.00;99.90;;;;;;6187301;23;20084;-90
2021/12/29 13:45:52;;;;;;;10.10;5.80;;;10.00;99.90;;;;;;6161904;23;20009;-90
2021/12/29 13:48:30;;;;;;;7.95;5.30;;;10.00;99.90;;;;;;6186784;23;19997;-89
2021/12/29 13:51:00;;;;;;;9.18;5.90;;;10.00;99.90;;;;;;6187374;23;20005;-89
2021/12/29 13:53:33;;;;;;;9.18;5.63;;;10.00;99.90;;;;;;6188064;23;19998;-89
2021/12/29 13:56:14;;;;;;;7.50;5.25;;;9.90;99.90;;;;;;6189103;23;20016;-88
2021/12/29 13:58:45;;;;;;;;;;;10.00;99.90;;;;;;6190070;23;20065;-88
2021/12/29 14:01:20;;;;;;;7.32;4.28;;;9.90;99.90;;;;;;6193680;23;19927;-89
2021/12/29 14:03:51;;;;;;;8.90;5.05;;;9.90;99.90;;;;;;6195372;23;20002;-90
2021/12/29 14:06:24;;;;;;;9.00;5.30;;;9.90;99.90;;;;;;6188228;23;20020;-91
2021/12/29 14:09:00;;;;;;;;;;;;;;;;;;;;;
2021/12/29 14:11:32;;;;;;;8.45;5.38;;;10.00;99.90;;;;;;6204990;23;20005;-89
2021/12/29 14:14:37;;;;;;;;;;;;;;;;;;;;;
2021/12/29 14:16:54;;;;;;;9.45;5.82;;;9.90;99.90;;;;;;6182218;23;20082;-88
2021/12/29 14:19:27;;;;;;;9.57;5.50;;;9.90;99.90;;;;;;6186030;23;20006;-88
2021/12/29 14:21:58;;;;;;;9.02;5.28;;;9.90;99.90;;;;;;6185714;23;20041;-88
2021/12/29 14:24:41;;;;;;;7.78;5.32;;;9.90;99.90;;;;;;6185980;23;20004;-88
2021/12/29 14:27:07;;;;;;;11.60;5.65;;;9.90;99.90;;;;;;6184786;23;20064;-88
2021/12/29 14:29:51;;;;;;;10.93;5.90;;;9.90;99.90;;;;;;6185910;23;20327;-87
2021/12/29 14:32:28;;;;;;;;;;;;;;;;;;;;;
2021/12/29 14:35:03;;;;;;;9.75;5.38;;;9.90;99.90;;;;;;6186637;23;20080;-89
2021/12/29 14:37:31;;;;;;;7.25;5.25;;;9.90;99.90;;;;;;6186701;23;20001;-89
2021/12/29 14:39:59;;;;;;;8.75;5.55;;;9.90;99.90;;;;;;6185013;23;19997;-89
2021/12/29 14:42:37;;;;;;;10.20;5.88;;;9.90;99.90;;;;;;6160455;23;20012;-88
2021/12/29 14:45:07;;;;;;;8.65;5.85;;;9.90;99.90;;;;;;6185108;23;20005;-88
2021/12/29 14:47:37;;;;;;;10.57;6.10;;;9.90;99.90;;;;;;6185287;23;20009;-88
2021/12/29 14:50:07;;;;;;;10.77;6.10;;;9.90;99.90;;;;;;6185063;23;20028;-88
2021/12/29 14:52:45;;;;;;;11.00;5.57;;;9.90;99.90;;;;;;6184815;23;20009;-89
2021/12/29 14:55:26;;;;;;;9.75;5.07;;;9.80;99.90;;;;;;6185097;23;20502;-88
2021/12/29 14:57:57;;;;;;;7.43;4.75;;;9.90;99.90;;;;;;6184608;23;20088;-87
2021/12/29 15:00:32;;;;;;;5.72;4.47;;;9.80;99.90;;;;;;6160738;23;20067;-89
2021/12/29 15:03:26;;;;;;;7.32;4.43;;;9.80;99.90;;;;;;6185014;23;20101;-89
2021/12/29 15:05:52;;;;;;;6.78;4.65;;;9.90;99.90;;;;;;6184883;23;20016;-89
2021/12/29 15:08:27;;;;;;;10.05;4.80;;;9.90;99.90;;;;;;6184908;23;20474;-88
2021/12/29 15:10:58;;;;;;;10.13;6.25;;;9.90;99.90;;;;;;6185401;23;20088;-87
2021/12/29 15:13:33;;;;;;;9.25;5.03;;;9.90;99.90;;;;;;6185112;23;20473;-89
2021/12/29 15:16:05;;;;;;;6.75;5.20;;;9.90;99.90;;;;;;6185426;23;20005;-89
2021/12/29 15:18:50;;;;;;;6.15;4.55;;;9.90;99.90;;;;;;6185287;23;20001;-89
2021/12/29 15:21:18;;;;;;;8.93;4.65;;;9.90;99.90;;;;;;6159978;23;20363;-89
2021/12/29 15:23:48;;;;;;;8.02;4.90;;;9.90;99.90;;;;;;6172488;23;20028;-89
2021/12/29 15:26:24;;;;;;;6.63;5.00;;;9.80;99.90;;;;;;6185449;23;20040;-88
2021/12/29 15:28:58;;;;;;;8.10;4.55;;;9.90;99.90;;;;;;6160816;23;20332;-89
2021/12/29 15:34:41;;;;;;;;;;;;;;;;;;;;;
2021/12/29 15:37:12;;;;;;;8.60;4.55;;;9.90;99.90;;;;;;6187476;23;20385;-88
2021/12/29 15:39:38;;;;;;;6.47;4.30;;;9.80;99.90;;;;;;6187906;23;20361;-89
2021/12/29 15:42:09;;;;;;;6.65;4.35;;;9.90;99.90;;;;;;6195508;23;19981;-88
2021/12/29 15:44:40;;;;;;;;;;;9.80;99.90;;;;;;6213088;23;19993;-88
2021/12/29 15:47:16;;;;;;;;;;;;;;;;;;;;;
2021/12/29 15:49:52;;;;;;;5.88;3.78;;;9.90;99.90;;;;;;6212860;23;19992;-87
2021/12/29 15:52:49;;;;;;;5.72;3.97;;;9.90;99.90;;;;;;6178456;23;20016;-88
2021/12/29 15:55:36;;;;;;;4.32;3.78;;;9.90;99.90;;;;;;6185844;23;20080;-90
2021/12/29 15:58:04;;;;;;;4.47;3.30;;;9.90;99.90;;;;;;6185587;23;20346;-88
2021/12/29 16:00:44;;;;;;;4.25;3.30;;;9.90;99.90;;;;;;6186169;23;20024;-88
2021/12/29 16:03:30;;;;;;;3.78;3.13;;;10.00;99.90;;;;;;6162100;23;20063;-88
2021/12/29 16:09:41;;;;;;;4.43;3.30;;;9.90;99.90;;;;;;6174118;23;20005;-88
2021/12/29 16:15:48;;;;;;;4.28;3.05;;;10.00;99.90;;;;;;6184570;23;20083;-87
2021/12/29 16:18:19;;;;;;;5.53;2.97;;;10.00;99.90;;;;;;6161033;23;20386;-87
2021/12/29 16:20:45;;;;;;;;;;;10.00;99.90;;;;;;6184587;23;20440;-85
2021/12/29 16:23:14;;;;;;;3.92;2.95;;;10.00;99.90;;;;;;6183204;23;19953;-86
2021/12/29 16:25:46;;;;;;;3.78;3.35;;;10.00;99.90;;;;;;6184202;23;20091;-88
2021/12/29 16:28:14;;;;;;;;;;;10.00;99.90;;;;;;6184602;23;20487;-87
2021/12/29 16:30:42;;;;;;;4.75;3.50;;;10.00;99.90;;;;;;6185159;23;19901;-89
2021/12/29 16:33:21;;;;;;;4.93;3.67;;;10.00;99.90;;;;;;6184498;23;20029;-90
2021/12/29 16:35:57;;;;;;;3.60;3.03;;;10.00;99.90;;;;;;6187574;23;20032;-88
2021/12/29 16:38:25;;;;;;;4.63;4.13;;;10.00;99.90;;;;;;6186722;23;20009;-89